KRPJ

Details ICAO KRPJ
Name ROCHELLE MUNI KORITZ FIELD
Region United States
Timezone America/Chicago (UTC-5.0)
Plans Departing 4
Arriving 5
Stats Elevation 781 ft / 238 m (AMSL)
Location 41.893006° -89.078278°
Runways 1
Magnetic Variation 2.820° W
Sunrise 2018-05-26 10:28:26 UTC / 2018-05-26 05:28:26 Local
Sunset 2018-05-27 01:21:12 UTC / 2018-05-26 20:21:12 Local
Advertisement - Login to hide

Runways

ID Width Length Bearing (true) Bearing (mag) Surface Threshold Offset Overrun Length
07 75 ft / 23 m 4,217 ft / 1,285 m 69.89° 72.71° Asphalt 0 ft / 0 m 0 ft / 0 m
25 75 ft / 23 m 4,217 ft / 1,285 m 249.90° 252.72° Asphalt 0 ft / 0 m 0 ft / 0 m

Map

Weather


0- 5 10 15 20 25 30 35+ Temperature / ° C

Clouds and Precipitation
Forecast for 2018-05-27 00:00 UTC. Updated 25 minutes ago

Ground ~20,000 ft ~40,000 ft Winds

METAR

KRPJ 262335Z AUTO 31005KT 10SM CLR 31/16 A2976 RMK AO2 T03050162

TAF

Not found

Frequencies

Recorded 119.67 MHz AWOS 3
Approach 126.00 MHz ROCKFORD APP/DEP
Unicom 122.80 MHz CTAF/UNICOM
Warning: Do not use this data for real-world aviation or navigation. No guarantee of current accuracy is given.